Meteo

Condividi:

Previsioni per il volo, messo gentilmente a disposizione da www.datameteo.com

per info sul servizio, contattare info@datameteo.it


Metar LIMZ

Available data for LIMZ from the past 2 hours
LEVALDIGI
Metar
LIMZ 270750Z VRB02KT CAVOK 29/21 Q1023

07:50 UTC

Wind: ° 2kt

Visibility:

Sky:

Temp: 29 deg C / 84.2 deg F

Dewpoint: 21 deg C / 69.8 deg F

Pressure: 1023 hPa

TAF
TAF LIMZ 270500Z 2706/2806 VRB05KT CAVOK

Gif Infrarosso


Gif Nuvole


Ultima immagine Infrarosso


Ultima immagine Nuvole


Gif Pioggia

Condividi: